sensor_id;sensor_type;location;lat;lon;timestamp;P1;durP1;ratioP1;P2;durP2;ratioP2
59366;SDS011;45163;47.690;11.770;2023-08-08T00:01:39;16.23;;;15.30;;
59366;SDS011;45163;47.690;11.770;2023-08-08T00:04:08;16.30;;;15.37;;
59366;SDS011;45163;47.690;11.770;2023-08-08T00:06:36;16.13;;;15.23;;
59366;SDS011;45163;47.690;11.770;2023-08-08T00:09:02;16.03;;;15.13;;
59366;SDS011;45163;47.690;11.770;2023-08-08T00:11:29;17.33;;;16.23;;
59366;SDS011;45163;47.690;11.770;2023-08-08T00:13:56;19.07;;;18.00;;
59366;SDS011;45163;47.690;11.770;2023-08-08T00:16:22;17.87;;;16.83;;
59366;SDS011;45163;47.690;11.770;2023-08-08T00:18:48;19.80;;;18.00;;
59366;SDS011;45163;47.690;11.770;2023-08-08T00:21:19;17.93;;;16.90;;
59366;SDS011;45163;47.690;11.770;2023-08-08T00:23:46;20.53;;;19.40;;
59366;SDS011;45163;47.690;11.770;2023-08-08T00:26:12;19.77;;;18.67;;
59366;SDS011;45163;47.690;11.770;2023-08-08T00:28:38;19.57;;;18.47;;
59366;SDS011;45163;47.690;11.770;2023-08-08T00:31:04;25.17;;;23.70;;
59366;SDS011;45163;47.690;11.770;2023-08-08T00:33:30;26.60;;;24.97;;
59366;SDS011;45163;47.690;11.770;2023-08-08T00:35:56;29.57;;;27.83;;
59366;SDS011;45163;47.690;11.770;2023-08-08T00:38:22;30.63;;;28.77;;
59366;SDS011;45163;47.690;11.770;2023-08-08T00:40:47;29.97;;;28.10;;
59366;SDS011;45163;47.690;11.770;2023-08-08T00:43:13;35.63;;;33.20;;
59366;SDS011;45163;47.690;11.770;2023-08-08T00:45:41;41.77;;;39.10;;
59366;SDS011;45163;47.690;11.770;2023-08-08T00:48:08;40.30;;;37.80;;
59366;SDS011;45163;47.690;11.770;2023-08-08T00:50:35;40.93;;;38.33;;
59366;SDS011;45163;47.690;11.770;2023-08-08T00:53:03;42.60;;;39.80;;
59366;SDS011;45163;47.690;11.770;2023-08-08T00:55:30;43.10;;;40.27;;
59366;SDS011;45163;47.690;11.770;2023-08-08T00:57:56;43.93;;;41.07;;
59366;SDS011;45163;47.690;11.770;2023-08-08T01:00:22;50.80;;;47.33;;
59366;SDS011;45163;47.690;11.770;2023-08-08T01:02:48;54.80;;;51.10;;
59366;SDS011;45163;47.690;11.770;2023-08-08T01:05:14;51.00;;;47.50;;
59366;SDS011;45163;47.690;11.770;2023-08-08T01:07:47;53.30;;;49.63;;
59366;SDS011;45163;47.690;11.770;2023-08-08T01:10:31;52.63;;;49.13;;
59366;SDS011;45163;47.690;11.770;2023-08-08T01:13:04;55.67;;;51.90;;
59366;SDS011;45163;47.690;11.770;2023-08-08T01:15:34;56.43;;;52.73;;
59366;SDS011;45163;47.690;11.770;2023-08-08T01:18:06;52.17;;;48.87;;
59366;SDS011;45163;47.690;11.770;2023-08-08T01:20:35;52.43;;;49.13;;
59366;SDS011;45163;47.690;11.770;2023-08-08T01:25:50;41.37;;;38.83;;
59366;SDS011;45163;47.690;11.770;2023-08-08T01:28:20;35.83;;;33.70;;
59366;SDS011;45163;47.690;11.770;2023-08-08T01:30:48;34.90;;;32.77;;
59366;SDS011;45163;47.690;11.770;2023-08-08T01:33:14;34.63;;;32.53;;
59366;SDS011;45163;47.690;11.770;2023-08-08T01:35:41;36.57;;;34.37;;
59366;SDS011;45163;47.690;11.770;2023-08-08T01:40:59;33.30;;;31.23;;
59366;SDS011;45163;47.690;11.770;2023-08-08T01:43:25;31.37;;;29.53;;
59366;SDS011;45163;47.690;11.770;2023-08-08T01:45:52;35.90;;;33.77;;
59366;SDS011;45163;47.690;11.770;2023-08-08T01:48:19;34.23;;;32.23;;
59366;SDS011;45163;47.690;11.770;2023-08-08T01:50:45;33.03;;;31.03;;
59366;SDS011;45163;47.690;11.770;2023-08-08T01:53:11;25.30;;;23.80;;
59366;SDS011;45163;47.690;11.770;2023-08-08T01:55:37;21.17;;;19.93;;
59366;SDS011;45163;47.690;11.770;2023-08-08T01:58:03;19.60;;;18.50;;
59366;SDS011;45163;47.690;11.770;2023-08-08T02:00:29;20.47;;;19.30;;
59366;SDS011;45163;47.690;11.770;2023-08-08T02:02:55;19.23;;;18.13;;
59366;SDS011;45163;47.690;11.770;2023-08-08T02:05:21;20.33;;;19.20;;
59366;SDS011;45163;47.690;11.770;2023-08-08T02:07:47;18.60;;;17.57;;
59366;SDS011;45163;47.690;11.770;2023-08-08T02:10:13;19.93;;;18.83;;
59366;SDS011;45163;47.690;11.770;2023-08-08T02:12:39;23.03;;;21.63;;
59366;SDS011;45163;47.690;11.770;2023-08-08T02:15:05;20.37;;;19.23;;
59366;SDS011;45163;47.690;11.770;2023-08-08T02:17:31;24.40;;;23.00;;
59366;SDS011;45163;47.690;11.770;2023-08-08T02:19:57;24.27;;;22.87;;
59366;SDS011;45163;47.690;11.770;2023-08-08T02:22:23;20.10;;;18.93;;
59366;SDS011;45163;47.690;11.770;2023-08-08T02:24:50;23.33;;;22.00;;
59366;SDS011;45163;47.690;11.770;2023-08-08T02:27:16;27.30;;;25.77;;
59366;SDS011;45163;47.690;11.770;2023-08-08T02:29:42;25.60;;;24.13;;
59366;SDS011;45163;47.690;11.770;2023-08-08T02:32:08;25.57;;;24.10;;
59366;SDS011;45163;47.690;11.770;2023-08-08T02:34:34;25.93;;;24.40;;
59366;SDS011;45163;47.690;11.770;2023-08-08T02:37:00;31.13;;;29.23;;
59366;SDS011;45163;47.690;11.770;2023-08-08T02:39:26;26.53;;;25.07;;
59366;SDS011;45163;47.690;11.770;2023-08-08T02:41:52;24.10;;;22.77;;
59366;SDS011;45163;47.690;11.770;2023-08-08T02:44:18;24.70;;;23.33;;
59366;SDS011;45163;47.690;11.770;2023-08-08T02:46:45;21.90;;;20.53;;
59366;SDS011;45163;47.690;11.770;2023-08-08T02:49:11;22.97;;;21.67;;
59366;SDS011;45163;47.690;11.770;2023-08-08T02:51:37;22.70;;;21.40;;
59366;SDS011;45163;47.690;11.770;2023-08-08T02:54:03;26.10;;;24.67;;
59366;SDS011;45163;47.690;11.770;2023-08-08T02:56:29;25.73;;;24.30;;
59366;SDS011;45163;47.690;11.770;2023-08-08T02:58:55;25.07;;;23.63;;
59366;SDS011;45163;47.690;11.770;2023-08-08T03:01:21;23.13;;;21.83;;
59366;SDS011;45163;47.690;11.770;2023-08-08T03:03:47;25.47;;;24.07;;
59366;SDS011;45163;47.690;11.770;2023-08-08T03:06:13;23.20;;;21.90;;
59366;SDS011;45163;47.690;11.770;2023-08-08T03:08:39;24.87;;;23.47;;
59366;SDS011;45163;47.690;11.770;2023-08-08T03:11:05;23.17;;;21.77;;
59366;SDS011;45163;47.690;11.770;2023-08-08T03:13:31;22.40;;;21.20;;
59366;SDS011;45163;47.690;11.770;2023-08-08T03:15:57;26.13;;;24.63;;
59366;SDS011;45163;47.690;11.770;2023-08-08T03:18:23;28.10;;;26.50;;
59366;SDS011;45163;47.690;11.770;2023-08-08T03:20:51;24.37;;;23.03;;
59366;SDS011;45163;47.690;11.770;2023-08-08T03:23:18;23.20;;;21.90;;
59366;SDS011;45163;47.690;11.770;2023-08-08T03:25:44;26.90;;;25.43;;
59366;SDS011;45163;47.690;11.770;2023-08-08T03:28:10;21.03;;;19.90;;
59366;SDS011;45163;47.690;11.770;2023-08-08T03:30:36;21.83;;;20.63;;
59366;SDS011;45163;47.690;11.770;2023-08-08T03:33:03;22.10;;;20.90;;
59366;SDS011;45163;47.690;11.770;2023-08-08T03:35:30;22.60;;;21.30;;
59366;SDS011;45163;47.690;11.770;2023-08-08T03:37:56;21.97;;;20.80;;
59366;SDS011;45163;47.690;11.770;2023-08-08T03:40:22;21.50;;;20.20;;
59366;SDS011;45163;47.690;11.770;2023-08-08T03:42:48;23.77;;;22.27;;
59366;SDS011;45163;47.690;11.770;2023-08-08T03:45:14;20.20;;;19.10;;
59366;SDS011;45163;47.690;11.770;2023-08-08T03:47:40;26.90;;;25.20;;
59366;SDS011;45163;47.690;11.770;2023-08-08T03:50:06;27.30;;;25.77;;
59366;SDS011;45163;47.690;11.770;2023-08-08T03:52:32;28.37;;;26.70;;
59366;SDS011;45163;47.690;11.770;2023-08-08T03:55:01;24.67;;;23.30;;
59366;SDS011;45163;47.690;11.770;2023-08-08T03:57:27;28.47;;;26.80;;
59366;SDS011;45163;47.690;11.770;2023-08-08T03:59:53;26.13;;;24.53;;
59366;SDS011;45163;47.690;11.770;2023-08-08T04:02:19;22.03;;;20.63;;
59366;SDS011;45163;47.690;11.770;2023-08-08T04:04:45;23.43;;;22.03;;
59366;SDS011;45163;47.690;11.770;2023-08-08T04:07:11;25.07;;;23.57;;
59366;SDS011;45163;47.690;11.770;2023-08-08T04:09:37;23.10;;;21.80;;
59366;SDS011;45163;47.690;11.770;2023-08-08T04:12:03;21.73;;;20.57;;
59366;SDS011;45163;47.690;11.770;2023-08-08T04:14:29;23.83;;;22.50;;
59366;SDS011;45163;47.690;11.770;2023-08-08T04:16:55;24.27;;;22.93;;
59366;SDS011;45163;47.690;11.770;2023-08-08T04:19:21;30.73;;;29.03;;
59366;SDS011;45163;47.690;11.770;2023-08-08T04:21:47;35.80;;;33.77;;
59366;SDS011;45163;47.690;11.770;2023-08-08T04:24:13;40.97;;;38.60;;
59366;SDS011;45163;47.690;11.770;2023-08-08T04:26:39;45.10;;;42.47;;
59366;SDS011;45163;47.690;11.770;2023-08-08T04:29:05;42.90;;;40.40;;
59366;SDS011;45163;47.690;11.770;2023-08-08T04:31:31;46.33;;;43.53;;
59366;SDS011;45163;47.690;11.770;2023-08-08T04:33:57;44.70;;;41.97;;
59366;SDS011;45163;47.690;11.770;2023-08-08T04:36:26;44.77;;;42.00;;
59366;SDS011;45163;47.690;11.770;2023-08-08T04:38:53;44.07;;;41.37;;
59366;SDS011;45163;47.690;11.770;2023-08-08T04:41:19;40.53;;;38.03;;
59366;SDS011;45163;47.690;11.770;2023-08-08T04:43:45;43.53;;;40.73;;
59366;SDS011;45163;47.690;11.770;2023-08-08T04:46:11;49.23;;;46.27;;
59366;SDS011;45163;47.690;11.770;2023-08-08T04:48:38;56.20;;;52.77;;
59366;SDS011;45163;47.690;11.770;2023-08-08T04:51:07;54.07;;;50.77;;
59366;SDS011;45163;47.690;11.770;2023-08-08T04:53:34;53.27;;;50.00;;
59366;SDS011;45163;47.690;11.770;2023-08-08T04:56:00;52.40;;;49.17;;
59366;SDS011;45163;47.690;11.770;2023-08-08T04:58:25;47.83;;;45.03;;
59366;SDS011;45163;47.690;11.770;2023-08-08T05:00:51;51.27;;;48.03;;
59366;SDS011;45163;47.690;11.770;2023-08-08T05:03:18;43.10;;;40.60;;
59366;SDS011;45163;47.690;11.770;2023-08-08T05:05:44;39.57;;;37.20;;
59366;SDS011;45163;47.690;11.770;2023-08-08T05:08:10;38.27;;;35.90;;
59366;SDS011;45163;47.690;11.770;2023-08-08T05:10:37;29.60;;;27.97;;
59366;SDS011;45163;47.690;11.770;2023-08-08T05:13:03;25.70;;;24.27;;
59366;SDS011;45163;47.690;11.770;2023-08-08T05:15:29;20.50;;;19.30;;
59366;SDS011;45163;47.690;11.770;2023-08-08T05:17:55;20.57;;;19.43;;
59366;SDS011;45163;47.690;11.770;2023-08-08T05:20:21;21.50;;;20.30;;
59366;SDS011;45163;47.690;11.770;2023-08-08T05:22:47;21.73;;;20.53;;
59366;SDS011;45163;47.690;11.770;2023-08-08T05:25:14;22.23;;;21.03;;
59366;SDS011;45163;47.690;11.770;2023-08-08T05:27:40;21.00;;;19.87;;
59366;SDS011;45163;47.690;11.770;2023-08-08T05:30:06;25.13;;;23.80;;
59366;SDS011;45163;47.690;11.770;2023-08-08T05:32:32;24.97;;;23.63;;
59366;SDS011;45163;47.690;11.770;2023-08-08T05:34:58;21.47;;;20.27;;
59366;SDS011;45163;47.690;11.770;2023-08-08T05:37:26;20.57;;;19.37;;
59366;SDS011;45163;47.690;11.770;2023-08-08T05:39:53;22.03;;;20.83;;
59366;SDS011;45163;47.690;11.770;2023-08-08T05:42:19;35.70;;;33.70;;
59366;SDS011;45163;47.690;11.770;2023-08-08T05:44:45;48.17;;;45.40;;
59366;SDS011;45163;47.690;11.770;2023-08-08T05:47:11;54.67;;;51.57;;
59366;SDS011;45163;47.690;11.770;2023-08-08T05:49:38;45.33;;;42.73;;
59366;SDS011;45163;47.690;11.770;2023-08-08T05:52:04;45.83;;;43.27;;
59366;SDS011;45163;47.690;11.770;2023-08-08T05:54:30;40.80;;;38.50;;
59366;SDS011;45163;47.690;11.770;2023-08-08T05:56:56;33.63;;;31.80;;
59366;SDS011;45163;47.690;11.770;2023-08-08T05:59:22;32.37;;;30.57;;
59366;SDS011;45163;47.690;11.770;2023-08-08T06:01:48;34.50;;;32.60;;
59366;SDS011;45163;47.690;11.770;2023-08-08T06:04:14;43.00;;;40.53;;
59366;SDS011;45163;47.690;11.770;2023-08-08T06:06:40;42.87;;;40.10;;
59366;SDS011;45163;47.690;11.770;2023-08-08T06:09:06;38.87;;;36.57;;
59366;SDS011;45163;47.690;11.770;2023-08-08T06:11:34;30.63;;;28.83;;
59366;SDS011;45163;47.690;11.770;2023-08-08T06:14:00;24.70;;;23.27;;
59366;SDS011;45163;47.690;11.770;2023-08-08T06:16:26;38.33;;;35.90;;
59366;SDS011;45163;47.690;11.770;2023-08-08T06:18:52;51.47;;;48.40;;
59366;SDS011;45163;47.690;11.770;2023-08-08T06:21:18;61.67;;;58.17;;
59366;SDS011;45163;47.690;11.770;2023-08-08T06:23:44;62.63;;;59.03;;
59366;SDS011;45163;47.690;11.770;2023-08-08T06:26:10;58.87;;;55.27;;
59366;SDS011;45163;47.690;11.770;2023-08-08T06:28:36;54.57;;;51.40;;
59366;SDS011;45163;47.690;11.770;2023-08-08T06:31:02;59.00;;;55.50;;
59366;SDS011;45163;47.690;11.770;2023-08-08T06:33:28;38.83;;;36.67;;
59366;SDS011;45163;47.690;11.770;2023-08-08T06:35:55;14.23;;;13.47;;
59366;SDS011;45163;47.690;11.770;2023-08-08T06:38:22;27.13;;;25.57;;
59366;SDS011;45163;47.690;11.770;2023-08-08T06:40:48;43.33;;;40.90;;
59366;SDS011;45163;47.690;11.770;2023-08-08T06:43:14;17.90;;;16.93;;
59366;SDS011;45163;47.690;11.770;2023-08-08T06:45:40;51.23;;;48.43;;
59366;SDS011;45163;47.690;11.770;2023-08-08T06:48:06;39.43;;;37.10;;
59366;SDS011;45163;47.690;11.770;2023-08-08T06:50:32;18.70;;;17.70;;
59366;SDS011;45163;47.690;11.770;2023-08-08T06:52:58;20.73;;;19.63;;
59366;SDS011;45163;47.690;11.770;2023-08-08T06:55:24;17.20;;;16.30;;
59366;SDS011;45163;47.690;11.770;2023-08-08T06:57:50;18.97;;;17.97;;
59366;SDS011;45163;47.690;11.770;2023-08-08T07:00:16;36.97;;;34.90;;
59366;SDS011;45163;47.690;11.770;2023-08-08T07:02:43;43.47;;;41.03;;
59366;SDS011;45163;47.690;11.770;2023-08-08T07:05:08;27.07;;;25.37;;
59366;SDS011;45163;47.690;11.770;2023-08-08T07:07:35;36.57;;;34.50;;
59366;SDS011;45163;47.690;11.770;2023-08-08T07:10:01;65.17;;;61.43;;
59366;SDS011;45163;47.690;11.770;2023-08-08T07:12:29;110.40;;;104.37;;
59366;SDS011;45163;47.690;11.770;2023-08-08T07:14:55;102.73;;;97.03;;
59366;SDS011;45163;47.690;11.770;2023-08-08T07:17:21;44.90;;;42.40;;
59366;SDS011;45163;47.690;11.770;2023-08-08T07:19:47;21.13;;;20.00;;
59366;SDS011;45163;47.690;11.770;2023-08-08T07:22:13;19.57;;;18.47;;
59366;SDS011;45163;47.690;11.770;2023-08-08T07:24:39;40.90;;;38.57;;
59366;SDS011;45163;47.690;11.770;2023-08-08T07:27:05;31.43;;;29.70;;
59366;SDS011;45163;47.690;11.770;2023-08-08T07:29:31;33.57;;;31.77;;
59366;SDS011;45163;47.690;11.770;2023-08-08T07:31:57;25.33;;;23.93;;
59366;SDS011;45163;47.690;11.770;2023-08-08T07:34:24;10.05;;;9.40;;
59366;SDS011;45163;47.690;11.770;2023-08-08T07:36:50;12.77;;;12.07;;
59366;SDS011;45163;47.690;11.770;2023-08-08T07:39:16;39.13;;;36.93;;
59366;SDS011;45163;47.690;11.770;2023-08-08T07:41:42;11.30;;;10.70;;
59366;SDS011;45163;47.690;11.770;2023-08-08T07:44:08;11.30;;;10.70;;
59366;SDS011;45163;47.690;11.770;2023-08-08T07:46:34;7.07;;;6.68;;
59366;SDS011;45163;47.690;11.770;2023-08-08T07:49:00;7.97;;;7.57;;
59366;SDS011;45163;47.690;11.770;2023-08-08T07:51:29;7.03;;;6.65;;
59366;SDS011;45163;47.690;11.770;2023-08-08T07:53:56;11.68;;;11.02;;
59366;SDS011;45163;47.690;11.770;2023-08-08T07:56:22;19.08;;;18.05;;
59366;SDS011;45163;47.690;11.770;2023-08-08T07:58:48;20.70;;;19.60;;
59366;SDS011;45163;47.690;11.770;2023-08-08T08:01:14;44.10;;;41.72;;
59366;SDS011;45163;47.690;11.770;2023-08-08T08:03:40;39.88;;;37.70;;
59366;SDS011;45163;47.690;11.770;2023-08-08T08:06:07;60.00;;;56.55;;
59366;SDS011;45163;47.690;11.770;2023-08-08T08:08:33;71.97;;;68.07;;
59366;SDS011;45163;47.690;11.770;2023-08-08T08:10:59;87.50;;;82.82;;
59366;SDS011;45163;47.690;11.770;2023-08-08T08:13:25;74.43;;;70.45;;
59366;SDS011;45163;47.690;11.770;2023-08-08T08:15:51;44.95;;;42.45;;
59366;SDS011;45163;47.690;11.770;2023-08-08T08:18:17;35.65;;;33.60;;
59366;SDS011;45163;47.690;11.770;2023-08-08T08:20:43;30.60;;;28.88;;
59366;SDS011;45163;47.690;11.770;2023-08-08T08:23:10;16.25;;;15.15;;
59366;SDS011;45163;47.690;11.770;2023-08-08T08:25:36;28.98;;;27.38;;
59366;SDS011;45163;47.690;11.770;2023-08-08T08:28:02;18.52;;;17.42;;
59366;SDS011;45163;47.690;11.770;2023-08-08T08:30:28;15.88;;;15.05;;
59366;SDS011;45163;47.690;11.770;2023-08-08T08:32:54;27.30;;;25.83;;
59366;SDS011;45163;47.690;11.770;2023-08-08T08:35:20;34.97;;;33.08;;
59366;SDS011;45163;47.690;11.770;2023-08-08T08:37:46;36.70;;;34.75;;
59366;SDS011;45163;47.690;11.770;2023-08-08T08:40:12;36.05;;;34.13;;
59366;SDS011;45163;47.690;11.770;2023-08-08T08:42:39;23.42;;;22.00;;
59366;SDS011;45163;47.690;11.770;2023-08-08T08:45:06;27.55;;;26.00;;
59366;SDS011;45163;47.690;11.770;2023-08-08T08:47:35;29.05;;;27.45;;
59366;SDS011;45163;47.690;11.770;2023-08-08T08:50:02;24.90;;;23.60;;
59366;SDS011;45163;47.690;11.770;2023-08-08T08:52:29;19.30;;;18.23;;
59366;SDS011;45163;47.690;11.770;2023-08-08T08:54:56;8.93;;;8.27;;
59366;SDS011;45163;47.690;11.770;2023-08-08T08:57:22;10.77;;;10.20;;
59366;SDS011;45163;47.690;11.770;2023-08-08T08:59:51;36.53;;;34.58;;
59366;SDS011;45163;47.690;11.770;2023-08-08T09:02:18;53.13;;;50.22;;
59366;SDS011;45163;47.690;11.770;2023-08-08T09:04:45;77.38;;;73.15;;
59366;SDS011;45163;47.690;11.770;2023-08-08T09:07:11;40.70;;;38.45;;
59366;SDS011;45163;47.690;11.770;2023-08-08T09:09:38;16.23;;;15.32;;
59366;SDS011;45163;47.690;11.770;2023-08-08T09:12:04;17.35;;;16.30;;
59366;SDS011;45163;47.690;11.770;2023-08-08T09:14:31;19.65;;;18.55;;
59366;SDS011;45163;47.690;11.770;2023-08-08T09:16:57;19.60;;;18.55;;
59366;SDS011;45163;47.690;11.770;2023-08-08T09:19:23;21.38;;;20.17;;
59366;SDS011;45163;47.690;11.770;2023-08-08T09:21:51;16.30;;;15.38;;
59366;SDS011;45163;47.690;11.770;2023-08-08T09:24:18;19.63;;;18.52;;
59366;SDS011;45163;47.690;11.770;2023-08-08T09:26:44;17.13;;;16.13;;
59366;SDS011;45163;47.690;11.770;2023-08-08T09:29:14;15.88;;;14.98;;
59366;SDS011;45163;47.690;11.770;2023-08-08T09:31:40;17.50;;;16.50;;
59366;SDS011;45163;47.690;11.770;2023-08-08T09:34:06;16.92;;;16.02;;
59366;SDS011;45163;47.690;11.770;2023-08-08T09:36:33;32.13;;;30.33;;
59366;SDS011;45163;47.690;11.770;2023-08-08T09:39:00;26.35;;;24.85;;
59366;SDS011;45163;47.690;11.770;2023-08-08T09:41:26;27.15;;;25.55;;
59366;SDS011;45163;47.690;11.770;2023-08-08T09:43:53;19.00;;;17.95;;
59366;SDS011;45163;47.690;11.770;2023-08-08T09:46:19;20.13;;;18.88;;
59366;SDS011;45163;47.690;11.770;2023-08-08T09:48:46;17.70;;;16.70;;
59366;SDS011;45163;47.690;11.770;2023-08-08T09:51:13;21.88;;;20.67;;
59366;SDS011;45163;47.690;11.770;2023-08-08T09:53:39;22.88;;;21.58;;
59366;SDS011;45163;47.690;11.770;2023-08-08T09:56:06;31.60;;;29.75;;
59366;SDS011;45163;47.690;11.770;2023-08-08T09:58:33;29.77;;;28.08;;
59366;SDS011;45163;47.690;11.770;2023-08-08T10:00:59;32.83;;;31.02;;
59366;SDS011;45163;47.690;11.770;2023-08-08T10:03:26;33.20;;;31.27;;
59366;SDS011;45163;47.690;11.770;2023-08-08T10:05:54;26.25;;;24.63;;
59366;SDS011;45163;47.690;11.770;2023-08-08T10:08:20;19.85;;;18.70;;
59366;SDS011;45163;47.690;11.770;2023-08-08T10:10:47;14.18;;;13.38;;
59366;SDS011;45163;47.690;11.770;2023-08-08T10:15:46;14.38;;;13.57;;
59366;SDS011;45163;47.690;11.770;2023-08-08T10:18:13;18.30;;;17.27;;
59366;SDS011;45163;47.690;11.770;2023-08-08T10:20:41;25.52;;;24.05;;
59366;SDS011;45163;47.690;11.770;2023-08-08T10:23:09;28.98;;;27.27;;
59366;SDS011;45163;47.690;11.770;2023-08-08T10:25:35;34.28;;;32.30;;
59366;SDS011;45163;47.690;11.770;2023-08-08T10:28:03;23.65;;;22.30;;
59366;SDS011;45163;47.690;11.770;2023-08-08T10:30:41;28.65;;;27.05;;
59366;SDS011;45163;47.690;11.770;2023-08-08T10:33:15;30.45;;;28.65;;
59366;SDS011;45163;47.690;11.770;2023-08-08T10:35:49;35.60;;;33.60;;
59366;SDS011;45163;47.690;11.770;2023-08-08T10:38:45;29.30;;;27.52;;
59366;SDS011;45163;47.690;11.770;2023-08-08T10:41:14;28.00;;;26.40;;
59366;SDS011;45163;47.690;11.770;2023-08-08T10:43:56;29.63;;;27.83;;
59366;SDS011;45163;47.690;11.770;2023-08-08T10:46:23;24.83;;;23.38;;
59366;SDS011;45163;47.690;11.770;2023-08-08T10:48:51;20.13;;;18.95;;
59366;SDS011;45163;47.690;11.770;2023-08-08T10:51:18;16.17;;;15.25;;
59366;SDS011;45163;47.690;11.770;2023-08-08T10:53:50;18.80;;;17.70;;
59366;SDS011;45163;47.690;11.770;2023-08-08T10:56:18;20.95;;;19.65;;
59366;SDS011;45163;47.690;11.770;2023-08-08T10:58:47;33.78;;;31.77;;
59366;SDS011;45163;47.690;11.770;2023-08-08T11:01:14;41.42;;;38.95;;
59366;SDS011;45163;47.690;11.770;2023-08-08T11:03:42;42.17;;;39.80;;
59366;SDS011;45163;47.690;11.770;2023-08-08T11:06:09;42.92;;;40.53;;
59366;SDS011;45163;47.690;11.770;2023-08-08T11:08:37;31.58;;;29.70;;
59366;SDS011;45163;47.690;11.770;2023-08-08T11:11:04;29.35;;;27.60;;
59366;SDS011;45163;47.690;11.770;2023-08-08T11:13:32;70.90;;;67.03;;
59366;SDS011;45163;47.690;11.770;2023-08-08T11:15:58;78.28;;;74.00;;
59366;SDS011;45163;47.690;11.770;2023-08-08T11:18:24;119.38;;;113.00;;
59366;SDS011;45163;47.690;11.770;2023-08-08T11:20:51;70.80;;;66.82;;
59366;SDS011;45163;47.690;11.770;2023-08-08T11:23:17;41.92;;;39.53;;
59366;SDS011;45163;47.690;11.770;2023-08-08T11:25:44;44.72;;;42.22;;
59366;SDS011;45163;47.690;11.770;2023-08-08T11:28:11;37.80;;;35.70;;
59366;SDS011;45163;47.690;11.770;2023-08-08T11:30:39;21.35;;;20.13;;
59366;SDS011;45163;47.690;11.770;2023-08-08T11:33:07;17.55;;;16.55;;
59366;SDS011;45163;47.690;11.770;2023-08-08T11:35:33;19.70;;;18.50;;
59366;SDS011;45163;47.690;11.770;2023-08-08T11:37:59;18.70;;;17.60;;
59366;SDS011;45163;47.690;11.770;2023-08-08T11:40:27;21.10;;;19.90;;
59366;SDS011;45163;47.690;11.770;2023-08-08T11:42:55;15.50;;;14.60;;
59366;SDS011;45163;47.690;11.770;2023-08-08T11:45:25;15.77;;;14.90;;
59366;SDS011;45163;47.690;11.770;2023-08-08T11:47:52;16.58;;;15.65;;
59366;SDS011;45163;47.690;11.770;2023-08-08T11:50:19;17.55;;;16.55;;
59366;SDS011;45163;47.690;11.770;2023-08-08T11:52:50;16.58;;;15.65;;
59366;SDS011;45163;47.690;11.770;2023-08-08T11:55:16;28.92;;;27.23;;
59366;SDS011;45163;47.690;11.770;2023-08-08T11:57:47;38.08;;;35.83;;
59366;SDS011;45163;47.690;11.770;2023-08-08T12:00:14;29.63;;;27.85;;
59366;SDS011;45163;47.690;11.770;2023-08-08T12:02:44;35.03;;;32.97;;
59366;SDS011;45163;47.690;11.770;2023-08-08T12:05:11;27.25;;;25.55;;
59366;SDS011;45163;47.690;11.770;2023-08-08T12:07:39;30.08;;;28.30;;
59366;SDS011;45163;47.690;11.770;2023-08-08T12:10:15;52.83;;;49.90;;
59366;SDS011;45163;47.690;11.770;2023-08-08T12:12:55;103.00;;;97.50;;
59366;SDS011;45163;47.690;11.770;2023-08-08T12:15:24;107.65;;;101.85;;
59366;SDS011;45163;47.690;11.770;2023-08-08T12:18:01;60.53;;;57.22;;
59366;SDS011;45163;47.690;11.770;2023-08-08T12:20:28;21.55;;;20.25;;
59366;SDS011;45163;47.690;11.770;2023-08-08T12:22:55;18.70;;;17.60;;
59366;SDS011;45163;47.690;11.770;2023-08-08T12:25:21;19.73;;;18.52;;
59366;SDS011;45163;47.690;11.770;2023-08-08T12:27:48;20.50;;;19.27;;
59366;SDS011;45163;47.690;11.770;2023-08-08T12:30:14;19.27;;;18.17;;
59366;SDS011;45163;47.690;11.770;2023-08-08T12:32:40;22.00;;;20.60;;
59366;SDS011;45163;47.690;11.770;2023-08-08T12:35:06;18.85;;;17.75;;
59366;SDS011;45163;47.690;11.770;2023-08-08T12:37:33;15.55;;;14.70;;
59366;SDS011;45163;47.690;11.770;2023-08-08T12:39:59;20.10;;;19.00;;
59366;SDS011;45163;47.690;11.770;2023-08-08T12:42:25;16.13;;;15.23;;
59366;SDS011;45163;47.690;11.770;2023-08-08T12:44:53;15.23;;;14.43;;
59366;SDS011;45163;47.690;11.770;2023-08-08T12:47:19;17.42;;;16.52;;
59366;SDS011;45163;47.690;11.770;2023-08-08T12:49:47;31.58;;;29.88;;
59366;SDS011;45163;47.690;11.770;2023-08-08T12:52:13;25.73;;;24.38;;
59366;SDS011;45163;47.690;11.770;2023-08-08T12:54:39;68.22;;;64.57;;
59366;SDS011;45163;47.690;11.770;2023-08-08T12:57:05;45.88;;;43.30;;
59366;SDS011;45163;47.690;11.770;2023-08-08T12:59:31;59.13;;;55.90;;
59366;SDS011;45163;47.690;11.770;2023-08-08T13:01:57;66.20;;;62.58;;
59366;SDS011;45163;47.690;11.770;2023-08-08T13:04:23;54.10;;;51.17;;
59366;SDS011;45163;47.690;11.770;2023-08-08T13:06:50;47.92;;;45.35;;
59366;SDS011;45163;47.690;11.770;2023-08-08T13:09:16;72.05;;;68.07;;
59366;SDS011;45163;47.690;11.770;2023-08-08T13:11:42;50.20;;;47.45;;
59366;SDS011;45163;47.690;11.770;2023-08-08T13:14:08;33.95;;;32.10;;
59366;SDS011;45163;47.690;11.770;2023-08-08T13:16:35;25.90;;;24.52;;
59366;SDS011;45163;47.690;11.770;2023-08-08T13:19:01;8.27;;;7.85;;
59366;SDS011;45163;47.690;11.770;2023-08-08T13:21:27;14.05;;;13.30;;
59366;SDS011;45163;47.690;11.770;2023-08-08T13:23:53;44.22;;;41.80;;
59366;SDS011;45163;47.690;11.770;2023-08-08T13:26:19;21.90;;;20.70;;
59366;SDS011;45163;47.690;11.770;2023-08-08T13:28:45;58.25;;;55.08;;
59366;SDS011;45163;47.690;11.770;2023-08-08T13:31:11;64.38;;;60.88;;
59366;SDS011;45163;47.690;11.770;2023-08-08T13:33:37;18.20;;;17.20;;
59366;SDS011;45163;47.690;11.770;2023-08-08T13:36:03;46.13;;;43.58;;
59366;SDS011;45163;47.690;11.770;2023-08-08T13:38:29;38.25;;;36.15;;
59366;SDS011;45163;47.690;11.770;2023-08-08T13:40:55;13.57;;;12.77;;
59366;SDS011;45163;47.690;11.770;2023-08-08T13:43:22;14.18;;;13.38;;
59366;SDS011;45163;47.690;11.770;2023-08-08T13:45:48;19.48;;;18.30;;
59366;SDS011;45163;47.690;11.770;2023-08-08T13:48:14;27.40;;;25.88;;
59366;SDS011;45163;47.690;11.770;2023-08-08T13:50:40;30.33;;;28.50;;
59366;SDS011;45163;47.690;11.770;2023-08-08T13:53:06;38.45;;;36.28;;
59366;SDS011;45163;47.690;11.770;2023-08-08T13:55:32;32.17;;;30.25;;
59366;SDS011;45163;47.690;11.770;2023-08-08T13:58:04;23.58;;;22.10;;
59366;SDS011;45163;47.690;11.770;2023-08-08T14:00:30;22.42;;;20.92;;
59366;SDS011;45163;47.690;11.770;2023-08-08T14:02:57;18.35;;;17.17;;
59366;SDS011;45163;47.690;11.770;2023-08-08T14:05:24;19.05;;;17.92;;
59366;SDS011;45163;47.690;11.770;2023-08-08T14:07:51;20.50;;;19.20;;
59366;SDS011;45163;47.690;11.770;2023-08-08T14:10:17;30.48;;;28.58;;
59366;SDS011;45163;47.690;11.770;2023-08-08T14:12:43;46.20;;;43.53;;
59366;SDS011;45163;47.690;11.770;2023-08-08T14:15:09;82.63;;;78.20;;